Time;durP1;ratioP1;P1;durP2;ratioP2;P2;SDS_P1;SDS_P2;PMS_P1;PMS_P2;Temp;Humidity;BMP_temperature;BMP_pressure;BME280_temperature;BME280_humidity;BME280_pressure;Samples;Min_cycle;Max_cycle;Signal;HPM_P1;HPM_P2
2023/01/09 00:01:48;;;;;;;5.15;3.05;;;;;;;9.41;79.79;98846.38;4194795;28;20460;-63
2023/01/09 00:03:51;;;;;;;4.63;3.58;;;;;;;9.39;79.80;98841.19;4193644;28;20514;-63
2023/01/09 00:05:56;;;;;;;7.20;4.40;;;;;;;9.41;79.92;98839.44;4193974;28;20405;-63
2023/01/09 00:07:59;;;;;;;5.65;3.65;;;;;;;9.35;80.33;98844.66;4202227;28;20157;-63
2023/01/09 00:10:01;;;;;;;6.32;3.60;;;;;;;9.35;80.01;98834.28;4195208;28;20559;-63
2023/01/09 00:12:05;;;;;;;6.18;4.03;;;;;;;9.34;80.34;98831.72;4195669;28;20048;-63
2023/01/09 00:14:08;;;;;;;5.95;3.83;;;;;;;9.30;80.57;98824.81;4186418;28;20094;-63
2023/01/09 00:16:13;;;;;;;8.98;3.53;;;;;;;9.26;81.07;98826.59;4191474;28;20024;-63
2023/01/09 00:18:16;;;;;;;5.80;3.67;;;;;;;9.38;80.89;98817.84;4195676;28;20490;-63
2023/01/09 00:20:18;;;;;;;5.82;3.70;;;;;;;9.40;80.25;98822.16;4193547;28;20062;-63
2023/01/09 00:22:23;;;;;;;5.63;3.50;;;;;;;9.43;80.13;98819.56;4196290;28;20424;-63
2023/01/09 00:24:25;;;;;;;4.90;3.38;;;;;;;9.40;80.65;98813.50;4194775;28;20474;-63
2023/01/09 00:26:29;;;;;;;4.85;3.25;;;;;;;9.40;80.08;98822.16;4195705;28;20401;-63
2023/01/09 00:28:33;;;;;;;4.50;3.00;;;;;;;9.32;80.88;98816.16;4193183;28;20036;-63
2023/01/09 00:30:38;;;;;;;3.80;2.75;;;;;;;9.35;80.96;98817.88;4191710;28;20040;-63
2023/01/09 00:32:41;;;;;;;4.40;3.03;;;;;;;9.33;81.07;98807.53;4194164;28;20044;-62
2023/01/09 00:34:44;;;;;;;3.95;2.47;;;;;;;9.36;80.73;98810.09;4194426;28;20123;-63
2023/01/09 00:36:47;;;;;;;3.60;2.47;;;;;;;9.31;80.67;98811.84;4195463;28;20032;-62
2023/01/09 00:38:52;;;;;;;4.07;2.90;;;;;;;9.33;80.63;98810.13;4197067;28;20533;-63
2023/01/09 00:40:55;;;;;;;4.10;2.75;;;;;;;9.34;80.70;98809.22;4193956;28;20037;-63
2023/01/09 00:42:58;;;;;;;2.78;1.90;;;;;;;9.38;80.32;98803.16;4192863;28;20040;-63
2023/01/09 00:45:03;;;;;;;5.45;2.50;;;;;;;9.38;80.98;98803.16;4193308;28;20041;-63
2023/01/09 00:47:12;;;;;;;2.92;2.15;;;;;;;9.39;80.35;98807.47;4196203;28;20029;-63
2023/01/09 00:49:16;;;;;;;4.90;2.10;;;;;;;9.37;80.30;98801.41;4193152;28;20505;-63
2023/01/09 00:51:20;;;;;;;2.78;1.88;;;;;;;9.35;80.36;98803.19;4192095;28;20494;-62
2023/01/09 00:53:26;;;;;;;3.65;1.80;;;;;;;9.36;80.42;98801.44;4194124;28;20036;-63
2023/01/09 00:55:31;;;;;;;3.58;1.92;;;;;;;9.32;80.54;98808.38;4192713;28;20041;-63
2023/01/09 00:57:34;;;;;;;3.03;1.80;;;;;;;9.30;80.84;98802.38;4193361;28;20055;-62
2023/01/09 00:59:36;;;;;;;2.08;1.60;;;;;;;9.22;81.13;98801.56;4194081;28;20082;-63
2023/01/09 01:01:39;;;;;;;3.17;1.80;;;;;;;9.24;81.12;98797.19;4194758;28;20042;-62
2023/01/09 01:03:42;;;;;;;3.35;1.45;;;;;;;9.18;81.10;98802.44;4194241;28;20032;-63
2023/01/09 01:08:09;;;;;;;2.20;1.73;;;;;;;9.24;81.27;98805.84;4193388;28;20037;-63
2023/01/09 01:10:16;;;;;;;3.30;1.33;;;;;;;9.21;81.22;98802.41;4195006;28;20433;-63
2023/01/09 01:12:20;;;;;;;2.22;1.50;;;;;;;9.20;81.26;98801.56;4193056;28;20463;-62
2023/01/09 01:14:23;;;;;;;2.22;1.50;;;;;;;9.31;81.01;98806.66;4193940;28;20052;-63
2023/01/09 01:16:26;;;;;;;2.00;1.58;;;;;;;9.24;81.34;98804.97;4193638;28;20063;-63
2023/01/09 01:18:28;;;;;;;2.15;1.63;;;;;;;9.22;81.47;98804.13;4194027;28;20502;-63
2023/01/09 01:20:31;;;;;;;2.78;1.55;;;;;;;9.19;81.52;98802.44;4191950;28;20048;-63
2023/01/09 01:22:34;;;;;;;2.10;1.25;;;;;;;9.21;80.96;98798.09;4195028;28;20037;-63
2023/01/09 01:24:37;;;;;;;4.43;1.38;;;;;;;9.23;81.00;98819.69;4194138;28;20033;-63
2023/01/09 01:26:40;;;;;;;1.58;1.10;;;;;;;9.19;80.99;98823.16;4193527;28;20512;-63
2023/01/09 01:28:44;;;;;;;1.75;1.30;;;;;;;9.15;81.84;98818.88;4193348;28;20037;-63
2023/01/09 01:30:47;;;;;;;2.05;1.20;;;;;;;9.15;81.41;98821.47;4194740;28;20038;-61
2023/01/09 01:32:50;;;;;;;2.30;1.30;;;;;;;9.19;81.24;98814.53;4189225;28;20040;-62
2023/01/09 01:34:53;;;;;;;3.58;1.70;;;;;;;9.21;81.16;98811.06;4193509;28;20082;-64
2023/01/09 01:36:56;;;;;;;1.85;1.30;;;;;;;9.22;81.45;98812.78;4193470;28;20082;-63
2023/01/09 01:38:59;;;;;;;1.63;1.10;;;;;;;9.23;81.20;98811.06;4175795;28;20439;-62
2023/01/09 01:41:03;;;;;;;1.40;1.00;;;;;;;9.35;81.03;98804.91;4194731;28;20040;-62
2023/01/09 01:43:06;;;;;;;1.67;1.17;;;;;;;9.33;80.79;98801.47;4194125;28;20045;-62
2023/01/09 01:45:13;;;;;;;1.48;1.20;;;;;;;9.27;80.91;98817.91;4193256;28;20070;-62
2023/01/09 01:47:19;;;;;;;2.17;1.27;;;;;;;9.24;81.09;98824.00;4194157;28;20032;-62
2023/01/09 01:49:22;;;;;;;1.45;1.10;;;;;;;9.28;80.67;98819.66;4193192;28;20127;-62
2023/01/09 01:51:27;;;;;;;1.30;1.17;;;;;;;9.28;80.83;98822.25;4194211;28;20049;-62
2023/01/09 01:53:34;;;;;;;1.83;1.08;;;;;;;9.24;80.68;98829.19;4206411;28;20036;-63
2023/01/09 01:55:41;;;;;;;2.55;1.02;;;;;;;9.22;81.17;98840.44;4193357;28;20043;-63
2023/01/09 01:57:48;;;;;;;1.08;0.98;;;;;;;9.24;81.01;98841.28;4191925;28;20219;-62
2023/01/09 01:59:57;;;;;;;2.88;1.00;;;;;;;9.13;80.93;98843.09;4192674;28;20063;-62
2023/01/09 02:02:02;;;;;;;1.02;0.82;;;;;;;9.15;80.96;98836.16;4191379;28;20450;-62
2023/01/09 02:04:06;;;;;;;1.75;1.10;;;;;;;9.22;80.62;98838.69;4191058;28;20096;-63
2023/01/09 02:06:09;;;;;;;1.90;0.90;;;;;;;9.24;81.03;98831.78;4192842;28;20036;-63
2023/01/09 02:08:12;;;;;;;2.78;1.27;;;;;;;9.23;80.79;98829.22;4193832;28;20071;-63
2023/01/09 02:10:15;;;;;;;1.17;0.90;;;;;;;9.17;80.93;98824.03;4173834;28;20049;-63
2023/01/09 02:12:22;;;;;;;1.77;1.17;;;;;;;9.17;81.03;98827.50;4210412;28;20288;-62
2023/01/09 02:14:27;;;;;;;1.27;1.02;;;;;;;9.15;80.99;98828.38;4190886;28;20048;-63
2023/01/09 02:16:44;;;;;;;1.73;1.17;;;;;;;9.20;80.60;98830.09;4193577;28;20063;-62
2023/01/09 02:18:51;;;;;;;1.38;1.00;;;;;;;9.17;81.01;98821.44;4195408;28;20424;-63
2023/01/09 02:20:58;;;;;;;2.85;1.00;;;;;;;9.22;80.76;98817.94;4195357;28;20037;-63
2023/01/09 02:23:20;;;;;;;3.17;1.10;;;;;;;9.31;80.65;98811.84;4195123;28;20402;-63
2023/01/09 02:25:49;;;;;;;1.67;1.30;;;;;;;9.30;80.57;98819.63;4195092;28;20042;-63
2023/01/09 02:28:19;;;;;;;1.85;1.30;;;;;;;9.30;80.78;98820.53;4189096;28;20033;-62
2023/01/09 02:30:40;;;;;;;1.67;1.20;;;;;;;9.30;80.78;98823.09;4191798;28;20448;-63
2023/01/09 02:32:59;;;;;;;1.77;1.42;;;;;;;9.24;81.11;98812.75;4195253;28;20032;-63
2023/01/09 02:35:13;;;;;;;3.00;1.38;;;;;;;9.24;81.17;98812.75;4192194;28;20486;-63
2023/01/09 02:37:25;;;;;;;2.15;1.50;;;;;;;9.24;80.83;98820.53;4193479;28;20037;-63
2023/01/09 02:39:35;;;;;;;2.13;1.30;;;;;;;9.26;81.26;98834.38;4195200;28;20072;-62
2023/01/09 02:41:45;;;;;;;2.80;1.63;;;;;;;9.28;81.18;98843.00;4195090;28;20045;-63
2023/01/09 02:43:48;;;;;;;1.65;1.30;;;;;;;9.23;81.19;98840.44;4194117;28;20040;-63
2023/01/09 02:45:52;;;;;;;1.83;1.50;;;;;;;9.25;81.08;98853.38;4192136;28;20110;-62
2023/01/09 02:47:55;;;;;;;1.40;1.25;;;;;;;9.21;81.22;98849.97;4192868;28;20094;-63
2023/01/09 02:50:02;;;;;;;1.95;1.52;;;;;;;9.21;81.37;98857.75;4192239;28;20199;-63
2023/01/09 02:52:26;;;;;;;1.60;1.20;;;;;;;9.23;81.47;98868.09;4192335;28;20379;-63
2023/01/09 02:54:37;;;;;;;1.52;1.25;;;;;;;9.13;81.58;98869.88;4198546;28;20028;-63
2023/01/09 02:57:04;;;;;;;1.88;1.27;;;;;;;9.09;81.35;98858.66;4191046;28;20037;-63
2023/01/09 02:59:19;;;;;;;2.00;1.23;;;;;;;8.99;81.53;98859.56;4189194;28;20469;-63
2023/01/09 03:01:35;;;;;;;1.50;1.00;;;;;;;8.85;81.46;98864.84;4191935;28;20040;-63
2023/01/09 03:03:46;;;;;;;1.33;1.23;;;;;;;8.86;81.78;98868.28;4192614;28;20048;-63
2023/01/09 03:05:55;;;;;;;1.98;1.10;;;;;;;8.83;81.69;98873.47;4193299;28;20040;-63
2023/01/09 03:08:01;;;;;;;2.95;1.25;;;;;;;8.83;81.58;98876.06;4191819;28;20506;-63
2023/01/09 03:10:13;;;;;;;1.70;1.10;;;;;;;8.78;81.49;98893.38;4192672;28;20135;-63
2023/01/09 03:12:21;;;;;;;3.40;2.05;;;;;;;8.81;81.77;98883.00;4191385;28;20044;-63
2023/01/09 03:14:25;;;;;;;6.63;2.97;;;;;;;8.87;81.68;98893.34;4193770;28;20074;-63
2023/01/09 03:16:32;;;;;;;;;;;;;;;8.88;81.50;98900.25;4197164;28;20058;-63
2023/01/09 03:18:38;;;;;;;5.55;2.75;;;;;;;8.89;81.60;98896.78;4196004;28;19924;-62
2023/01/09 03:20:42;;;;;;;15.25;3.17;;;;;;;8.95;81.11;98912.31;4195378;28;20079;-63
2023/01/09 03:22:54;;;;;;;6.85;3.17;;;;;;;8.86;81.08;98915.81;4196285;28;20044;-63
2023/01/09 03:24:57;;;;;;;7.03;3.42;;;;;;;8.93;80.67;98918.38;4195651;28;20425;-63
2023/01/09 03:27:00;;;;;;;8.63;3.38;;;;;;;8.88;80.71;98911.47;4195289;28;20536;-62
2023/01/09 03:29:03;;;;;;;8.60;3.42;;;;;;;8.88;80.96;98915.81;4212241;28;20036;-62
2023/01/09 03:31:06;;;;;;;11.63;3.22;;;;;;;8.86;80.69;98918.41;4193098;28;20045;-64
2023/01/09 03:33:10;;;;;;;3.90;2.13;;;;;;;8.85;80.73;98927.03;4198466;28;20448;-64
2023/01/09 03:35:13;;;;;;;7.43;2.13;;;;;;;8.92;80.69;98930.44;4197408;28;20086;-62
2023/01/09 03:37:16;;;;;;;6.38;2.55;;;;;;;8.94;80.38;98920.94;4197955;28;20127;-64
2023/01/09 03:39:19;;;;;;;6.90;2.58;;;;;;;8.91;80.03;98923.56;4196944;28;20040;-62
2023/01/09 03:41:22;;;;;;;2.45;1.48;;;;;;;8.99;80.00;98924.38;4197892;28;20037;-62
2023/01/09 03:43:25;;;;;;;4.18;1.73;;;;;;;9.00;80.16;98922.66;4197154;28;20040;-62
2023/01/09 03:45:28;;;;;;;5.28;1.98;;;;;;;8.99;80.08;98928.69;4196701;28;20036;-62
2023/01/09 03:47:31;;;;;;;5.57;1.77;;;;;;;8.95;79.98;98938.22;4197755;28;20067;-62
2023/01/09 03:49:35;;;;;;;5.80;2.08;;;;;;;8.95;79.69;98927.88;4198161;28;20449;-62
2023/01/09 03:51:38;;;;;;;7.35;2.55;;;;;;;8.86;79.29;98939.13;4198482;28;20191;-62
2023/01/09 03:53:41;;;;;;;4.70;1.77;;;;;;;8.74;78.11;98944.34;4195540;28;20052;-62
2023/01/09 03:55:46;;;;;;;2.42;1.42;;;;;;;8.68;78.53;98955.56;4197464;28;20041;-62
2023/01/09 03:57:49;;;;;;;1.85;1.00;;;;;;;8.74;78.06;98965.91;4193648;28;20132;-63
2023/01/09 03:59:52;;;;;;;0.80;0.65;;;;;;;8.72;77.34;98978.03;4195055;28;20502;-62
2023/01/09 04:01:55;;;;;;;1.40;0.90;;;;;;;8.64;76.65;98974.56;4195651;28;20044;-62
2023/01/09 04:03:58;;;;;;;1.60;0.77;;;;;;;8.68;76.04;98986.66;4196042;28;20045;-62
2023/01/09 04:06:02;;;;;;;1.83;0.80;;;;;;;8.71;76.00;98999.59;4196185;28;20120;-63
2023/01/09 04:08:05;;;;;;;2.28;1.00;;;;;;;8.64;75.53;98997.03;4194028;28;20496;-63
2023/01/09 04:10:09;;;;;;;0.70;0.70;;;;;;;8.63;75.00;99014.31;4195759;28;20444;-63
2023/01/09 04:12:13;;;;;;;1.70;0.80;;;;;;;8.56;74.26;99012.59;4195648;28;20047;-63
2023/01/09 04:14:16;;;;;;;2.42;1.35;;;;;;;8.60;73.85;99018.63;4194343;28;20040;-62
2023/01/09 04:16:18;;;;;;;4.22;1.95;;;;;;;8.64;73.66;99023.78;4196323;28;20448;-63
2023/01/09 04:18:21;;;;;;;2.75;1.23;;;;;;;8.63;73.03;99035.03;4192575;28;20119;-63
2023/01/09 04:20:24;;;;;;;2.30;1.48;;;;;;;8.69;72.92;99035.03;4191095;28;20040;-63
2023/01/09 04:22:30;;;;;;;4.07;1.00;;;;;;;8.72;72.85;99047.97;4196233;28;20063;-63
2023/01/09 04:24:33;;;;;;;1.80;1.20;;;;;;;8.65;72.26;99066.13;4194727;28;20130;-63
2023/01/09 04:26:35;;;;;;;2.75;1.52;;;;;;;8.62;72.14;99064.41;4195038;28;20036;-63
2023/01/09 04:28:38;;;;;;;5.85;1.20;;;;;;;8.61;72.54;99070.44;4193716;28;20085;-63
2023/01/09 04:30:41;;;;;;;3.38;1.50;;;;;;;8.71;72.42;99079.91;4196953;28;20074;-62
2023/01/09 04:32:44;;;;;;;6.07;1.35;;;;;;;8.70;72.63;99088.59;4194074;28;20040;-63
2023/01/09 04:34:46;;;;;;;1.80;1.20;;;;;;;8.73;73.13;99091.16;4193618;28;20486;-63
2023/01/09 04:36:49;;;;;;;6.68;2.28;;;;;;;8.74;73.22;99089.44;4192193;28;20091;-63
2023/01/09 04:38:53;;;;;;;3.95;1.50;;;;;;;8.75;73.25;99088.56;4194918;28;20041;-63
2023/01/09 04:40:56;;;;;;;5.50;1.30;;;;;;;8.79;73.29;99092.00;4194765;28;20029;-63
2023/01/09 04:42:59;;;;;;;1.88;0.90;;;;;;;8.85;73.12;99087.69;4194904;28;20051;-63
2023/01/09 04:45:02;;;;;;;2.40;0.70;;;;;;;8.84;72.84;99096.31;4193435;28;20086;-63
2023/01/09 04:47:05;;;;;;;0.63;0.60;;;;;;;8.83;72.24;99094.59;4195009;28;20094;-62
2023/01/09 04:49:08;;;;;;;2.78;1.13;;;;;;;8.78;72.01;99092.91;4195268;28;20036;-62
2023/01/09 04:51:11;;;;;;;2.88;0.80;;;;;;;8.62;71.74;99095.47;4192430;28;20131;-64
2023/01/09 04:53:15;;;;;;;1.00;0.70;;;;;;;8.52;70.96;99107.56;4195605;28;20032;-64
2023/01/09 04:55:19;;;;;;;1.10;0.70;;;;;;;8.44;70.25;99117.06;4194088;28;20043;-64
2023/01/09 04:57:22;;;;;;;1.08;0.68;;;;;;;8.53;70.22;99113.63;4194662;28;20036;-64
2023/01/09 04:59:25;;;;;;;0.82;0.70;;;;;;;8.55;69.96;99119.66;4193639;28;20119;-63
2023/01/09 05:01:28;;;;;;;2.38;1.13;;;;;;;8.58;69.77;99118.81;4188833;28;20058;-64
2023/01/09 05:03:31;;;;;;;3.50;1.10;;;;;;;8.52;68.28;99122.25;4194560;28;20080;-65
2023/01/09 05:05:34;;;;;;;2.53;0.90;;;;;;;8.51;67.98;99128.28;4194558;28;20045;-64
2023/01/09 05:07:37;;;;;;;1.17;0.73;;;;;;;8.51;68.25;99134.34;4193123;28;20779;-64
2023/01/09 05:09:40;;;;;;;6.53;0.85;;;;;;;8.48;67.54;99130.88;4196656;28;20032;-64
2023/01/09 05:11:44;;;;;;;2.05;0.68;;;;;;;8.44;67.23;99142.97;4195467;28;20041;-65
2023/01/09 05:13:47;;;;;;;5.32;0.70;;;;;;;8.40;67.05;99146.38;4194196;28;20073;-65
2023/01/09 05:15:50;;;;;;;3.13;0.55;;;;;;;8.43;67.64;99145.53;4192675;28;20032;-64
2023/01/09 05:17:53;;;;;;;0.98;0.70;;;;;;;8.46;67.56;99155.91;4194267;28;20518;-64
2023/01/09 05:19:56;;;;;;;2.55;0.70;;;;;;;8.59;68.03;99161.97;4192781;28;20055;-64
2023/01/09 05:21:59;;;;;;;2.05;0.63;;;;;;;8.65;67.67;99165.44;4192502;28;20048;-64
2023/01/09 05:24:02;;;;;;;3.15;1.00;;;;;;;8.69;67.33;99177.53;4193687;28;20051;-63
2023/01/09 05:26:05;;;;;;;1.48;0.60;;;;;;;8.68;68.09;99185.28;4191471;28;20094;-63
2023/01/09 05:28:09;;;;;;;2.80;0.55;;;;;;;8.56;67.58;99188.75;4171376;28;20041;-63
2023/01/09 05:30:13;;;;;;;1.88;0.70;;;;;;;8.54;68.29;99185.25;4190989;28;20036;-64
2023/01/09 05:32:18;;;;;;;1.45;0.60;;;;;;;8.51;68.91;99185.25;4195797;28;20422;-64
2023/01/09 05:34:21;;;;;;;0.77;0.40;;;;;;;8.53;69.09;99184.41;4195079;28;20040;-63
2023/01/09 05:36:24;;;;;;;4.53;0.82;;;;;;;8.58;68.79;99181.81;4195411;28;20097;-63
2023/01/09 05:38:27;;;;;;;6.55;0.70;;;;;;;8.44;68.20;99184.41;4196005;28;20042;-64
2023/01/09 05:40:30;;;;;;;2.05;0.77;;;;;;;8.33;67.24;99186.91;4195998;28;20549;-64
2023/01/09 05:42:42;;;;;;;2.95;1.10;;;;;;;8.30;66.41;99179.13;4195998;28;20040;-64
2023/01/09 05:44:46;;;;;;;2.97;1.07;;;;;;;8.29;66.30;99179.13;4195070;28;20114;-63
2023/01/09 05:46:49;;;;;;;6.60;1.02;;;;;;;8.23;65.58;99185.16;4195936;28;20325;-64
2023/01/09 05:48:52;;;;;;;5.55;1.17;;;;;;;8.09;65.85;99189.41;4196007;28;20034;-64
2023/01/09 05:50:55;;;;;;;3.55;1.13;;;;;;;8.09;65.66;99186.84;4196197;28;20051;-64
2023/01/09 05:52:58;;;;;;;6.18;1.30;;;;;;;8.14;65.64;99200.66;4195077;28;20512;-64
2023/01/09 05:55:01;;;;;;;9.82;1.20;;;;;;;8.20;65.52;99206.72;4195086;28;20044;-63
2023/01/09 05:57:04;;;;;;;6.22;1.00;;;;;;;8.28;65.96;99211.94;4195568;28;20032;-64
2023/01/09 05:59:06;;;;;;;2.63;0.70;;;;;;;8.18;65.67;99234.34;4195574;28;20037;-64
2023/01/09 06:01:10;;;;;;;2.63;0.85;;;;;;;8.23;66.26;99234.34;4195711;28;20051;-64
2023/01/09 06:03:13;;;;;;;5.00;0.88;;;;;;;8.24;65.43;99241.25;4195302;28;20401;-64
2023/01/09 06:05:16;;;;;;;3.72;0.95;;;;;;;8.15;65.79;99234.31;4196012;28;20064;-64
2023/01/09 06:07:19;;;;;;;0.93;0.70;;;;;;;8.17;65.92;99247.28;4196622;28;20032;-63
2023/01/09 06:09:25;;;;;;;4.72;0.82;;;;;;;8.19;66.27;99243.84;4195575;28;20032;-64
2023/01/09 06:11:27;;;;;;;3.72;0.93;;;;;;;8.29;66.27;99242.13;4195427;28;20052;-64
2023/01/09 06:13:30;;;;;;;2.58;0.82;;;;;;;8.39;66.31;99238.72;4193847;28;20444;-64
2023/01/09 06:15:33;;;;;;;5.25;1.23;;;;;;;8.37;66.47;99243.03;4194466;28;20337;-64
2023/01/09 06:17:37;;;;;;;4.85;0.68;;;;;;;8.42;66.34;99244.78;4191332;28;20041;-64
2023/01/09 06:19:40;;;;;;;5.85;1.38;;;;;;;8.35;67.52;99244.78;4194112;28;20074;-63
2023/01/09 06:21:43;;;;;;;4.72;1.08;;;;;;;8.48;67.07;99250.00;4195116;28;20090;-64
2023/01/09 06:23:46;;;;;;;3.15;0.95;;;;;;;8.46;67.22;99254.31;4195498;28;20036;-64
2023/01/09 06:25:49;;;;;;;2.60;0.90;;;;;;;8.51;67.25;99250.00;4193739;28;20036;-63
2023/01/09 06:27:51;;;;;;;5.40;1.65;;;;;;;8.51;67.35;99252.59;4193425;28;20040;-64
2023/01/09 06:29:54;;;;;;;3.50;1.20;;;;;;;8.53;67.24;99250.91;4195247;28;20036;-64
2023/01/09 06:31:57;;;;;;;4.93;1.10;;;;;;;8.48;67.06;99260.38;4194063;28;20520;-63
2023/01/09 06:34:01;;;;;;;4.43;0.80;;;;;;;8.46;66.91;99265.53;4194202;28;20414;-64
2023/01/09 06:36:05;;;;;;;6.78;1.70;;;;;;;8.49;66.86;99270.72;4195368;28;20086;-63
2023/01/09 06:38:08;;;;;;;4.55;1.00;;;;;;;8.48;67.33;99262.97;4189323;28;20048;-63
2023/01/09 06:40:11;;;;;;;4.25;1.30;;;;;;;8.55;67.55;99259.53;4195318;28;20102;-63
2023/01/09 06:42:14;;;;;;;4.45;1.17;;;;;;;8.56;67.81;99276.81;4195177;28;20089;-63
2023/01/09 06:44:17;;;;;;;2.97;0.93;;;;;;;8.55;68.18;99280.25;4194267;28;20043;-63
2023/01/09 06:46:20;;;;;;;7.18;1.25;;;;;;;8.52;68.70;99275.06;4194191;28;20028;-63
2023/01/09 06:48:23;;;;;;;3.80;1.08;;;;;;;8.48;68.62;99275.91;4202761;28;20259;-63
2023/01/09 06:50:28;;;;;;;2.92;0.93;;;;;;;8.65;68.64;99279.41;4192043;28;20506;-63
2023/01/09 06:52:30;;;;;;;3.92;1.08;;;;;;;8.50;69.36;99285.41;4194357;28;20043;-63
2023/01/09 06:54:33;;;;;;;4.13;1.33;;;;;;;8.54;69.69;99273.34;4195002;28;20036;-63
2023/01/09 06:56:36;;;;;;;3.13;1.30;;;;;;;8.52;69.94;99275.91;4195270;28;20037;-63
2023/01/09 06:58:39;;;;;;;3.65;0.80;;;;;;;8.56;69.83;99272.47;4195019;28;20130;-63
2023/01/09 07:00:42;;;;;;;6.05;1.23;;;;;;;8.58;69.69;99282.84;4195076;28;20033;-63
2023/01/09 07:02:45;;;;;;;4.05;0.90;;;;;;;8.45;69.85;99274.16;4194959;28;20155;-63
2023/01/09 07:04:48;;;;;;;3.42;0.88;;;;;;;8.51;69.23;99278.50;4194343;28;20036;-64
2023/01/09 07:06:52;;;;;;;2.92;1.10;;;;;;;8.44;69.92;99282.81;4188392;28;20036;-63
2023/01/09 07:08:55;;;;;;;4.03;1.45;;;;;;;8.48;69.90;99283.69;4195680;28;20040;-63
2023/01/09 07:10:58;;;;;;;5.88;1.35;;;;;;;8.43;70.51;99282.78;4193578;28;20055;-63
2023/01/09 07:13:01;;;;;;;2.40;0.90;;;;;;;8.49;70.86;99277.66;4194062;28;20041;-63
2023/01/09 07:15:04;;;;;;;6.78;2.15;;;;;;;8.47;70.55;99275.06;4194216;28;20046;-63
2023/01/09 07:17:07;;;;;;;3.90;0.90;;;;;;;8.48;70.34;99283.69;4194896;28;20039;-63
2023/01/09 07:19:10;;;;;;;4.63;1.00;;;;;;;8.41;70.08;99284.47;4194001;28;20455;-63
2023/01/09 07:21:13;;;;;;;3.25;0.82;;;;;;;8.35;69.93;99270.66;4193848;28;20036;-64
2023/01/09 07:23:17;;;;;;;4.43;1.23;;;;;;;8.27;70.24;99274.94;4205719;28;20032;-63
2023/01/09 07:25:20;;;;;;;3.63;1.42;;;;;;;8.23;70.52;99286.13;4187357;28;20078;-63
2023/01/09 07:27:23;;;;;;;3.85;1.45;;;;;;;8.17;70.33;99278.34;4195134;28;20483;-63
2023/01/09 07:29:26;;;;;;;5.65;1.40;;;;;;;8.28;69.88;99289.63;4194911;28;20044;-64
2023/01/09 07:31:29;;;;;;;4.55;1.58;;;;;;;8.17;70.10;99288.69;4193475;28;20047;-63
2023/01/09 07:33:31;;;;;;;3.75;1.02;;;;;;;8.15;70.42;99287.84;4193934;28;20051;-63
2023/01/09 07:35:35;;;;;;;2.85;1.02;;;;;;;8.02;70.50;99295.53;4193663;28;20028;-63
2023/01/09 07:37:37;;;;;;;4.78;1.45;;;;;;;8.08;70.63;99304.19;4194947;28;20445;-64
2023/01/09 07:39:42;;;;;;;4.60;1.48;;;;;;;8.01;70.62;99304.13;4194434;28;20405;-63
2023/01/09 07:41:45;;;;;;;3.95;1.13;;;;;;;7.92;70.70;99304.09;4194932;28;20037;-63
2023/01/09 07:43:49;;;;;;;6.63;1.10;;;;;;;8.02;71.11;99300.69;4192967;28;20415;-63
2023/01/09 07:45:52;;;;;;;7.43;1.42;;;;;;;8.00;70.96;99312.78;4192447;28;20066;-64
2023/01/09 07:47:55;;;;;;;4.40;0.98;;;;;;;7.99;70.81;99316.22;4194576;28;20062;-63
2023/01/09 07:49:58;;;;;;;5.32;1.35;;;;;;;8.00;71.38;99319.66;4193305;28;20044;-63
2023/01/09 07:52:01;;;;;;;4.72;1.20;;;;;;;8.03;71.78;99322.25;4194472;28;20055;-63
2023/01/09 07:54:03;;;;;;;2.53;1.10;;;;;;;7.99;72.18;99321.38;4193050;28;20044;-63
2023/01/09 07:56:08;;;;;;;3.92;1.13;;;;;;;8.01;72.33;99319.66;4195449;28;20036;-63
2023/01/09 07:58:11;;;;;;;9.30;2.13;;;;;;;8.03;72.79;99327.44;4193247;28;20110;-63
2023/01/09 08:00:14;;;;;;;4.32;1.02;;;;;;;8.03;72.82;99328.31;4195536;28;20032;-63
2023/01/09 08:02:17;;;;;;;5.03;1.38;;;;;;;8.15;72.38;99329.25;4196778;28;20102;-64
2023/01/09 08:04:20;;;;;;;7.07;1.40;;;;;;;8.10;72.23;99324.03;4195479;28;20037;-63
2023/01/09 08:06:23;;;;;;;5.80;1.52;;;;;;;8.15;72.24;99322.34;4196160;28;20036;-63
2023/01/09 08:08:25;;;;;;;4.47;1.27;;;;;;;8.12;72.48;99318.84;4196175;28;20041;-63
2023/01/09 08:10:28;;;;;;;7.97;1.20;;;;;;;8.07;72.36;99317.97;4198528;28;20039;-63
2023/01/09 08:12:32;;;;;;;5.55;1.63;;;;;;;8.09;71.51;99322.31;4197408;28;20032;-63
2023/01/09 08:14:35;;;;;;;5.47;1.70;;;;;;;8.06;71.78;99313.66;4196633;28;20502;-63
2023/01/09 08:16:38;;;;;;;4.90;1.30;;;;;;;8.09;71.83;99319.72;4197326;28;20568;-63
2023/01/09 08:18:42;;;;;;;4.55;1.23;;;;;;;8.14;71.42;99324.94;4197445;28;20409;-63
2023/01/09 08:20:48;;;;;;;3.20;1.27;;;;;;;8.06;71.19;99324.00;4197328;28;20048;-63
2023/01/09 08:22:52;;;;;;;5.45;1.25;;;;;;;8.04;71.18;99322.28;4197341;28;20783;-63
2023/01/09 08:24:55;;;;;;;2.95;0.90;;;;;;;8.04;71.57;99324.00;4195433;28;20059;-63
2023/01/09 08:26:58;;;;;;;4.90;1.20;;;;;;;8.07;71.99;99325.75;4196274;28;20450;-63
2023/01/09 08:29:02;;;;;;;5.88;1.30;;;;;;;8.17;71.55;99324.94;4179990;28;20072;-63
2023/01/09 08:31:05;;;;;;;2.67;0.93;;;;;;;8.29;71.40;99324.13;4197949;28;20063;-63
2023/01/09 08:33:08;;;;;;;8.88;1.90;;;;;;;8.32;71.27;99321.56;4196678;28;20033;-63
2023/01/09 08:35:11;;;;;;;3.40;1.27;;;;;;;8.26;70.45;99330.16;4196524;28;20040;-63
2023/01/09 08:37:14;;;;;;;8.10;2.45;;;;;;;8.29;70.16;99321.53;4197064;28;20068;-64
2023/01/09 08:39:17;;;;;;;3.22;1.20;;;;;;;8.21;70.54;99326.69;4196931;28;20078;-63
2023/01/09 08:48:26;;;;;;;5.90;1.55;;;;;;;7.92;71.19;99329.09;4195070;28;20386;-63
2023/01/09 08:50:29;;;;;;;3.03;1.00;;;;;;;8.02;70.61;99313.63;4195392;28;20079;-63
2023/01/09 08:52:32;;;;;;;3.83;1.00;;;;;;;7.98;70.69;99324.81;4195786;28;20036;-63
2023/01/09 08:54:35;;;;;;;5.20;1.10;;;;;;;7.96;70.98;99329.13;4195892;28;20036;-63
2023/01/09 08:56:38;;;;;;;3.70;1.05;;;;;;;7.93;70.92;99326.53;4195684;28;20042;-63
2023/01/09 08:58:41;;;;;;;6.13;1.42;;;;;;;7.97;70.76;99323.13;4196589;28;20033;-63
2023/01/09 09:00:44;;;;;;;9.10;1.65;;;;;;;7.97;70.27;99325.69;4196569;28;20051;-63
2023/01/09 09:02:52;;;;;;;6.10;1.10;;;;;;;7.99;70.83;99326.56;4195539;28;20036;-63
2023/01/09 09:04:55;;;;;;;8.73;1.05;;;;;;;7.98;70.61;99323.97;4189117;28;20064;-63
2023/01/09 09:06:58;;;;;;;7.07;1.38;;;;;;;8.01;70.71;99329.16;4195402;28;20047;-63
2023/01/09 09:09:02;;;;;;;6.55;1.60;;;;;;;8.03;70.94;99328.31;4195590;28;20483;-63
2023/01/09 09:11:05;;;;;;;4.32;1.27;;;;;;;8.08;70.22;99324.91;4196684;28;20131;-63
2023/01/09 09:13:08;;;;;;;6.22;1.50;;;;;;;8.11;70.97;99330.09;4191968;28;20084;-63
2023/01/09 09:15:15;;;;;;;4.70;1.65;;;;;;;8.31;70.54;99327.59;4194529;28;20045;-63
2023/01/09 09:17:18;;;;;;;9.23;1.85;;;;;;;8.39;69.77;99329.34;4193765;28;20120;-63
2023/01/09 09:19:22;;;;;;;7.35;1.20;;;;;;;8.37;69.70;99343.19;4196049;28;20045;-63
2023/01/09 09:21:25;;;;;;;6.90;1.33;;;;;;;8.34;69.94;99346.59;4196063;28;20399;-63
2023/01/09 09:23:28;;;;;;;6.80;1.85;;;;;;;8.44;69.71;99344.06;4182021;28;20115;-63
2023/01/09 09:25:31;;;;;;;5.88;1.65;;;;;;;8.46;69.97;99352.75;4193499;28;20029;-63
2023/01/09 09:27:35;;;;;;;7.88;1.48;;;;;;;8.53;69.60;99349.34;4195007;28;20038;-62
2023/01/09 09:29:38;;;;;;;4.55;1.20;;;;;;;8.52;69.19;99347.59;4196018;28;20032;-63
2023/01/09 09:31:40;;;;;;;4.93;1.63;;;;;;;8.51;69.70;99354.50;4195823;28;20029;-63
2023/01/09 09:33:43;;;;;;;8.80;1.27;;;;;;;8.47;69.44;99354.47;4195320;28;20512;-63
2023/01/09 09:35:48;;;;;;;5.32;1.42;;;;;;;8.47;69.41;99349.28;4182848;28;20041;-62
2023/01/09 09:37:54;;;;;;;6.63;1.13;;;;;;;8.46;69.31;99352.75;4178547;28;20055;-63
2023/01/09 09:39:57;;;;;;;5.30;1.20;;;;;;;8.42;69.12;99350.97;4192046;28;20506;-63
2023/01/09 09:45:01;;;;;;;5.32;1.20;;;;;;;8.24;69.55;99346.56;4193565;28;20043;-63
2023/01/09 09:47:11;;;;;;;7.63;1.35;;;;;;;8.18;69.15;99352.56;4189459;28;20041;-63
2023/01/09 09:49:21;;;;;;;3.60;1.05;;;;;;;8.16;69.90;99354.25;4195578;28;20097;-62
2023/01/09 09:51:43;;;;;;;6.32;1.38;;;;;;;8.12;69.83;99352.50;4195450;28;20032;-63
2023/01/09 09:53:51;;;;;;;4.43;1.30;;;;;;;8.25;70.09;99343.09;4194845;28;20402;-63
2023/01/09 09:55:56;;;;;;;4.13;1.20;;;;;;;8.28;70.06;99351.75;4195690;28;20521;-63
2023/01/09 09:58:00;;;;;;;;;;;;;;;8.29;69.83;99350.88;4194375;28;20040;-63
2023/01/09 10:00:06;;;;;;;6.40;1.17;;;;;;;8.26;70.03;99356.03;4189858;28;19938;-63
2023/01/09 10:02:24;;;;;;;6.38;1.33;;;;;;;8.41;70.08;99359.59;4195490;28;20135;-63
2023/01/09 10:04:32;;;;;;;4.10;1.15;;;;;;;8.36;69.40;99357.81;4194604;28;20040;-63
2023/01/09 10:06:42;;;;;;;5.18;1.30;;;;;;;8.40;69.75;99358.72;4195055;28;20044;-63